Time;durP1;ratioP1;P1;durP2;ratioP2;P2;SDS_P1;SDS_P2;PMS_P1;PMS_P2;Temp;Humidity;BMP_temperature;BMP_pressure;BME280_temperature;BME280_humidity;BME280_pressure;Samples;Min_cycle;Max_cycle;Signal;HPM_P1;HPM_P2
2022/10/30 00:00:32;;;;;;;13.37;11.10;;;17.00;99.90;;;;;;4992113;28;20447;-53
2022/10/30 00:02:59;;;;;;;22.60;11.53;;;16.90;99.90;;;;;;4999214;28;20506;-49
2022/10/30 00:05:27;;;;;;;18.97;9.70;;;16.90;99.90;;;;;;4997779;28;20497;-53
2022/10/30 00:07:55;;;;;;;19.60;11.30;;;16.90;99.90;;;;;;4999006;28;20498;-50
2022/10/30 00:10:22;;;;;;;19.53;9.47;;;16.80;99.90;;;;;;4998321;28;20506;-47
2022/10/30 00:12:49;;;;;;;19.33;11.87;;;16.80;99.90;;;;;;4981713;28;20450;-47
2022/10/30 00:15:16;;;;;;;17.10;10.10;;;16.90;99.90;;;;;;4998525;28;20510;-49
2022/10/30 00:17:43;;;;;;;13.93;11.30;;;16.90;99.90;;;;;;4998559;28;20473;-54
2022/10/30 00:20:10;;;;;;;19.97;10.70;;;16.80;99.90;;;;;;4999162;28;20431;-49
2022/10/30 00:22:38;;;;;;;19.37;12.50;;;16.80;99.90;;;;;;4984179;28;20461;-55
2022/10/30 00:25:08;;;;;;;15.27;12.20;;;16.70;99.90;;;;;;4995563;28;20454;-55
2022/10/30 00:27:35;;;;;;;15.50;10.90;;;16.70;99.90;;;;;;4998459;28;20447;-53
2022/10/30 00:30:02;;;;;;;20.87;11.23;;;16.70;99.90;;;;;;4997846;28;20491;-51
2022/10/30 00:32:29;;;;;;;18.30;12.63;;;16.70;99.90;;;;;;4988883;28;20921;-55
2022/10/30 00:34:55;;;;;;;18.50;11.13;;;16.70;99.90;;;;;;4990529;28;20457;-50
2022/10/30 00:37:22;;;;;;;21.13;11.13;;;16.70;99.90;;;;;;4997460;28;20443;-46
2022/10/30 00:39:50;;;;;;;21.67;13.10;;;16.60;99.90;;;;;;4997755;28;20461;-54
2022/10/30 00:42:17;;;;;;;16.13;11.77;;;16.60;99.90;;;;;;4997233;28;20543;-55
2022/10/30 00:44:47;;;;;;;19.70;12.70;;;16.50;99.90;;;;;;4997090;28;20457;-53
2022/10/30 00:47:20;;;;;;;15.30;11.53;;;16.50;99.90;;;;;;4997547;28;20449;-53
2022/10/30 00:49:52;;;;;;;17.57;11.83;;;16.50;99.90;;;;;;4988654;28;20445;-54
2022/10/30 00:52:21;;;;;;;17.40;12.43;;;16.50;99.90;;;;;;4986983;28;20461;-51
2022/10/30 00:54:50;;;;;;;20.80;12.50;;;16.40;99.90;;;;;;4984999;28;20471;-53
2022/10/30 00:57:18;;;;;;;21.20;12.57;;;16.40;99.90;;;;;;4997865;28;20451;-54
2022/10/30 00:59:45;;;;;;;19.90;12.80;;;16.40;99.90;;;;;;4998472;28;20487;-55
2022/10/30 01:02:12;;;;;;;21.00;13.23;;;16.40;99.90;;;;;;4998340;28;20484;-51
2022/10/30 01:04:43;;;;;;;17.53;10.90;;;16.30;99.90;;;;;;4993835;28;20475;-54
2022/10/30 01:07:17;;;;;;;20.13;13.33;;;16.30;99.90;;;;;;4996518;28;20534;-53
2022/10/30 01:09:46;;;;;;;24.87;12.50;;;16.20;99.90;;;;;;4997174;28;20948;-55
2022/10/30 01:12:14;;;;;;;18.10;12.83;;;16.20;99.90;;;;;;4996837;28;20466;-46
2022/10/30 01:14:45;;;;;;;21.40;12.93;;;16.20;99.90;;;;;;4997466;28;20439;-52
2022/10/30 01:17:36;;;;;;;25.67;13.00;;;16.20;99.90;;;;;;4983745;28;20424;-52
2022/10/30 01:20:19;;;;;;;22.27;14.30;;;16.20;99.90;;;;;;4997001;28;20540;-55
2022/10/30 01:22:59;;;;;;;15.87;13.17;;;16.20;99.90;;;;;;4997087;28;20491;-48
2022/10/30 01:25:41;;;;;;;18.40;15.30;;;16.10;99.90;;;;;;4997382;28;20441;-49
2022/10/30 01:28:27;;;;;;;18.43;12.57;;;16.10;99.90;;;;;;4997415;28;20447;-54
2022/10/30 01:31:08;;;;;;;20.20;14.87;;;16.00;99.90;;;;;;4996962;28;20554;-55
2022/10/30 01:33:48;;;;;;;24.87;15.20;;;16.00;99.90;;;;;;4991219;28;20451;-55
2022/10/30 01:36:20;;;;;;;26.00;15.10;;;16.00;99.90;;;;;;4987624;28;20485;-54
2022/10/30 01:39:07;;;;;;;21.40;14.70;;;15.90;99.90;;;;;;4996665;28;20428;-52
2022/10/30 01:41:34;;;;;;;18.53;12.40;;;15.90;99.90;;;;;;4986966;28;20462;-49
2022/10/30 01:44:06;;;;;;;18.70;13.00;;;15.90;99.90;;;;;;4996650;28;20501;-53
2022/10/30 01:46:48;;;;;;;22.03;13.83;;;15.90;99.90;;;;;;4996642;28;20438;-56
2022/10/30 01:49:50;;;;;;;20.73;12.07;;;15.80;99.90;;;;;;4995509;28;20469;-55
2022/10/30 01:52:22;;;;;;;23.27;12.80;;;15.80;99.90;;;;;;4996152;28;20566;-52
2022/10/30 01:54:57;;;;;;;18.70;13.00;;;15.80;99.90;;;;;;4996187;28;20477;-56
2022/10/30 01:57:36;;;;;;;14.07;11.83;;;15.80;99.90;;;;;;4995987;28;20533;-52
2022/10/30 02:00:07;;;;;;;20.00;13.20;;;15.80;99.90;;;;;;4995666;28;20432;-51
2022/10/30 02:02:35;;;;;;;24.33;13.13;;;15.70;99.90;;;;;;4995999;28;20449;-54
2022/10/30 02:05:02;;;;;;;21.23;12.70;;;15.70;99.90;;;;;;4986511;28;20546;-56
2022/10/30 02:07:29;;;;;;;22.60;12.33;;;15.60;99.90;;;;;;4989341;28;20470;-52
2022/10/30 02:10:25;;;;;;;17.47;12.80;;;15.60;99.90;;;;;;4995737;28;20431;-55
2022/10/30 02:12:52;;;;;;;27.63;12.40;;;15.60;99.90;;;;;;4979551;28;20976;-51
2022/10/30 02:15:20;;;;;;;25.80;13.70;;;15.60;99.90;;;;;;4996219;28;20466;-49
2022/10/30 02:17:48;;;;;;;19.70;12.70;;;15.60;99.90;;;;;;4996360;28;20443;-51
2022/10/30 02:20:17;;;;;;;16.40;12.10;;;15.60;99.90;;;;;;4996172;28;20494;-54
2022/10/30 02:22:44;;;;;;;19.47;13.00;;;15.60;99.90;;;;;;4996257;28;20502;-53
2022/10/30 02:25:14;;;;;;;16.60;13.23;;;15.60;99.90;;;;;;4996209;28;20481;-49
2022/10/30 02:27:41;;;;;;;24.33;14.10;;;15.50;99.90;;;;;;4995987;28;20446;-55
2022/10/30 02:30:09;;;;;;;25.20;15.97;;;15.50;99.90;;;;;;4995826;28;20439;-53
2022/10/30 02:32:36;;;;;;;19.03;13.37;;;15.50;99.90;;;;;;4995987;28;20446;-54
2022/10/30 02:35:03;;;;;;;21.87;12.93;;;15.50;99.90;;;;;;4996240;28;20495;-48
2022/10/30 02:37:34;;;;;;;21.67;13.70;;;15.50;99.90;;;;;;4983381;28;20463;-52
2022/10/30 02:40:01;;;;;;;21.80;13.10;;;15.50;99.90;;;;;;4992982;28;20458;-48
2022/10/30 02:42:29;;;;;;;18.13;12.50;;;15.50;99.90;;;;;;4993465;28;20446;-55
2022/10/30 02:44:59;;;;;;;18.40;12.60;;;15.50;99.90;;;;;;4982944;28;20457;-48
2022/10/30 02:47:29;;;;;;;20.00;12.73;;;15.50;99.90;;;;;;4995677;28;20471;-52
2022/10/30 02:49:56;;;;;;;17.60;11.93;;;15.50;99.90;;;;;;4995940;28;20505;-56
2022/10/30 02:52:23;;;;;;;26.30;13.97;;;15.50;99.90;;;;;;4995735;28;20975;-49
2022/10/30 02:54:58;;;;;;;19.33;12.50;;;15.50;99.90;;;;;;4983031;28;20522;-57
2022/10/30 02:57:28;;;;;;;18.27;13.67;;;15.50;99.90;;;;;;4993254;28;20461;-51
2022/10/30 02:59:55;;;;;;;17.03;11.93;;;15.50;99.90;;;;;;4992001;28;20526;-57
2022/10/30 03:02:21;;;;;;;18.57;11.50;;;15.50;99.90;;;;;;4982219;28;20459;-51
2022/10/30 03:04:48;;;;;;;19.23;13.20;;;15.50;99.90;;;;;;4995542;28;20454;-48
2022/10/30 03:07:15;;;;;;;21.50;10.83;;;15.50;99.90;;;;;;4992160;28;20457;-50
2022/10/30 03:09:42;;;;;;;15.90;10.90;;;15.40;99.90;;;;;;4977588;28;20446;-55
2022/10/30 03:12:10;;;;;;;15.97;11.10;;;15.40;99.90;;;;;;4994753;28;20510;-55
2022/10/30 03:14:38;;;;;;;16.77;11.20;;;15.40;99.90;;;;;;4996173;28;20485;-58
2022/10/30 03:17:05;;;;;;;17.70;10.87;;;15.50;99.90;;;;;;4996231;28;20457;-54
2022/10/30 03:19:35;;;;;;;18.80;11.60;;;15.50;99.90;;;;;;4982421;28;20779;-56
2022/10/30 03:22:04;;;;;;;20.00;11.37;;;15.50;99.90;;;;;;4994077;28;20445;-55
2022/10/30 03:24:30;;;;;;;15.93;12.03;;;15.60;99.90;;;;;;4999482;28;20439;-53
2022/10/30 03:27:00;;;;;;;24.57;10.60;;;15.60;99.90;;;;;;4982955;28;20466;-56
2022/10/30 03:29:28;;;;;;;16.63;10.47;;;15.60;99.90;;;;;;4999514;28;20438;-52
2022/10/30 03:31:55;;;;;;;12.17;10.63;;;15.50;99.90;;;;;;4998517;28;20501;-52
2022/10/30 03:34:25;;;;;;;15.17;10.63;;;15.50;99.90;;;;;;4998652;28;20506;-50
2022/10/30 03:36:51;;;;;;;11.70;9.70;;;15.40;99.90;;;;;;4982878;28;20530;-54
2022/10/30 03:39:18;;;;;;;13.27;10.13;;;15.30;99.90;;;;;;4991547;28;20482;-55
2022/10/30 03:41:46;;;;;;;15.20;10.10;;;15.20;99.90;;;;;;4991083;28;20969;-53
2022/10/30 03:44:16;;;;;;;22.07;12.00;;;15.20;99.90;;;;;;4998558;28;20508;-53
2022/10/30 03:46:44;;;;;;;13.57;11.30;;;15.20;99.90;;;;;;4991462;28;20724;-49
2022/10/30 03:49:11;;;;;;;24.90;11.63;;;15.30;99.90;;;;;;4990156;28;20443;-50
2022/10/30 03:51:40;;;;;;;19.73;12.27;;;15.40;99.90;;;;;;4998756;28;20493;-54
2022/10/30 03:54:07;;;;;;;16.97;12.77;;;15.40;99.90;;;;;;4985607;28;20549;-56
2022/10/30 03:56:34;;;;;;;17.00;10.23;;;15.40;99.90;;;;;;4990578;28;20477;-55
2022/10/30 03:59:01;;;;;;;17.90;11.80;;;15.40;99.90;;;;;;4989758;28;20456;-55
2022/10/30 04:01:28;;;;;;;12.40;10.30;;;15.40;99.90;;;;;;4987110;28;20443;-51
2022/10/30 04:03:59;;;;;;;17.10;10.23;;;15.50;99.90;;;;;;4992387;28;20761;-52
2022/10/30 04:06:25;;;;;;;17.43;11.10;;;15.50;99.90;;;;;;4988768;28;20447;-51
2022/10/30 04:08:54;;;;;;;16.10;10.33;;;15.50;99.90;;;;;;4983568;28;20478;-52
2022/10/30 04:11:21;;;;;;;16.13;11.93;;;15.50;99.90;;;;;;4998245;28;20478;-53
2022/10/30 04:13:48;;;;;;;16.57;10.10;;;15.60;99.90;;;;;;4998295;28;21032;-55
2022/10/30 04:16:18;;;;;;;17.17;11.10;;;15.60;99.90;;;;;;4998147;28;20453;-56
2022/10/30 04:18:45;;;;;;;24.50;11.20;;;15.70;99.90;;;;;;4997956;28;20515;-47
2022/10/30 04:21:13;;;;;;;16.43;11.10;;;15.70;99.90;;;;;;4997989;28;20527;-48
2022/10/30 04:23:41;;;;;;;15.20;9.27;;;15.70;99.90;;;;;;4998504;28;20485;-48
2022/10/30 04:26:09;;;;;;;16.27;10.10;;;15.70;99.90;;;;;;4998019;28;20447;-51
2022/10/30 04:28:36;;;;;;;15.03;9.47;;;15.70;99.90;;;;;;4998036;28;20494;-53
2022/10/30 04:31:03;;;;;;;21.23;10.70;;;15.70;99.90;;;;;;4997650;28;20546;-55
2022/10/30 04:33:30;;;;;;;14.07;9.23;;;15.70;99.90;;;;;;4997510;28;20524;-53
2022/10/30 04:35:57;;;;;;;17.50;9.90;;;15.70;99.90;;;;;;4986535;28;20443;-56
2022/10/30 04:38:25;;;;;;;15.40;9.57;;;15.80;99.90;;;;;;4992843;28;20459;-52
2022/10/30 04:40:51;;;;;;;15.83;8.27;;;15.80;99.90;;;;;;4997682;28;20447;-50
2022/10/30 04:43:25;;;;;;;14.03;9.07;;;15.80;99.90;;;;;;4997224;28;20502;-56
2022/10/30 04:45:55;;;;;;;15.47;9.30;;;15.70;99.90;;;;;;4997705;28;20479;-56
2022/10/30 04:48:23;;;;;;;11.17;9.43;;;15.70;99.90;;;;;;4997346;28;20443;-55
2022/10/30 04:50:50;;;;;;;16.83;9.90;;;15.70;99.90;;;;;;4997951;28;20465;-53
2022/10/30 04:53:19;;;;;;;15.30;9.80;;;15.70;99.90;;;;;;4986357;28;20435;-56
2022/10/30 04:55:53;;;;;;;14.70;9.70;;;15.70;99.90;;;;;;4993280;28;20447;-51
2022/10/30 04:58:20;;;;;;;10.80;9.70;;;15.60;99.90;;;;;;4997546;28;20431;-50
2022/10/30 05:00:48;;;;;;;18.07;10.73;;;15.60;99.90;;;;;;4985778;28;20443;-55
2022/10/30 05:03:21;;;;;;;18.43;9.70;;;15.60;99.90;;;;;;4996704;28;20490;-47
2022/10/30 05:05:56;;;;;;;16.87;10.60;;;15.60;99.90;;;;;;4997484;28;20470;-50
2022/10/30 05:08:23;;;;;;;13.63;9.60;;;15.60;99.90;;;;;;4981423;28;20443;-54
2022/10/30 05:10:54;;;;;;;14.10;10.60;;;15.60;99.90;;;;;;4989195;28;20455;-47
2022/10/30 05:13:21;;;;;;;15.60;10.37;;;15.60;99.90;;;;;;4991594;28;20446;-48
2022/10/30 05:15:48;;;;;;;21.10;12.07;;;15.60;99.90;;;;;;4997117;28;20469;-41
2022/10/30 05:18:14;;;;;;;16.70;10.80;;;15.60;99.90;;;;;;4997138;28;20470;-42
2022/10/30 05:20:41;;;;;;;16.60;9.43;;;15.60;99.90;;;;;;4997347;28;20482;-46
2022/10/30 05:23:09;;;;;;;16.70;10.70;;;15.60;99.90;;;;;;4996747;28;20429;-46
2022/10/30 05:25:39;;;;;;;14.37;11.23;;;15.60;99.90;;;;;;4981418;28;20443;-53
2022/10/30 05:28:07;;;;;;;13.03;9.33;;;15.60;99.90;;;;;;4997497;28;20534;-49
2022/10/30 05:30:35;;;;;;;10.80;8.90;;;15.60;99.90;;;;;;4997044;28;20461;-40
2022/10/30 05:33:04;;;;;;;19.80;10.43;;;15.60;99.90;;;;;;4996167;28;20476;-45
2022/10/30 05:35:33;;;;;;;22.77;10.50;;;15.60;99.90;;;;;;4996785;28;20437;-42
2022/10/30 05:38:00;;;;;;;18.90;11.17;;;15.60;99.90;;;;;;4993747;28;20459;-47
2022/10/30 05:40:28;;;;;;;10.17;8.50;;;15.60;99.90;;;;;;4984480;28;20479;-42
2022/10/30 05:42:58;;;;;;;19.23;10.00;;;15.60;99.90;;;;;;4983937;28;20478;-44
2022/10/30 05:45:32;;;;;;;11.70;8.80;;;15.60;99.90;;;;;;4994346;28;20451;-47
2022/10/30 05:48:04;;;;;;;12.17;9.63;;;15.60;99.90;;;;;;4996909;28;20447;-44
2022/10/30 05:50:31;;;;;;;16.27;8.90;;;15.60;99.90;;;;;;4981557;28;20462;-50
2022/10/30 05:53:00;;;;;;;12.57;9.40;;;15.60;99.90;;;;;;4996429;28;20485;-50
2022/10/30 05:55:31;;;;;;;12.20;8.87;;;15.60;99.90;;;;;;4996165;28;20471;-50
2022/10/30 05:57:58;;;;;;;24.47;12.00;;;15.70;99.90;;;;;;4996410;28;20471;-46
2022/10/30 06:00:25;;;;;;;15.00;10.63;;;15.70;99.90;;;;;;4997388;28;20457;-43
2022/10/30 06:02:59;;;;;;;15.17;9.57;;;15.60;99.90;;;;;;4987413;28;20546;-45
2022/10/30 06:05:26;;;;;;;10.80;8.10;;;15.60;99.90;;;;;;4991695;28;20469;-51
2022/10/30 06:07:55;;;;;;;16.80;9.47;;;15.60;99.90;;;;;;4996360;28;20445;-44
2022/10/30 06:10:22;;;;;;;16.80;10.30;;;15.60;99.90;;;;;;4985816;28;20463;-46
2022/10/30 06:12:56;;;;;;;18.50;9.77;;;15.60;99.90;;;;;;4991338;28;20466;-49
2022/10/30 06:15:23;;;;;;;13.17;8.83;;;15.60;99.90;;;;;;4980931;28;20473;-45
2022/10/30 06:17:55;;;;;;;13.80;8.50;;;15.70;99.90;;;;;;4996429;28;20461;-46
2022/10/30 06:20:25;;;;;;;11.77;8.37;;;15.70;99.90;;;;;;4990421;28;20451;-49
2022/10/30 06:22:56;;;;;;;16.90;9.20;;;15.80;99.90;;;;;;4987747;28;20474;-50
2022/10/30 06:25:23;;;;;;;12.47;8.07;;;15.90;99.90;;;;;;4996382;28;20430;-47
2022/10/30 06:27:50;;;;;;;8.57;7.57;;;15.90;99.90;;;;;;4996937;28;20447;-53
2022/10/30 06:30:21;;;;;;;14.17;9.00;;;16.00;99.90;;;;;;4996605;28;20438;-51
2022/10/30 06:32:48;;;;;;;12.40;9.00;;;16.00;99.90;;;;;;4997137;28;20538;-43
2022/10/30 06:35:17;;;;;;;11.47;9.27;;;16.00;99.90;;;;;;4996032;28;20526;-44
2022/10/30 06:37:47;;;;;;;10.50;7.90;;;16.00;99.90;;;;;;4989587;28;20486;-48
2022/10/30 06:40:15;;;;;;;10.27;7.63;;;16.00;99.90;;;;;;4987762;28;20482;-47
2022/10/30 06:42:45;;;;;;;11.27;7.63;;;16.00;99.90;;;;;;4996113;28;20490;-47
2022/10/30 06:45:12;;;;;;;14.33;9.83;;;16.00;99.90;;;;;;4982496;28;20438;-50
2022/10/30 06:47:41;;;;;;;11.27;9.37;;;16.10;99.90;;;;;;4995550;28;20475;-50
2022/10/30 06:50:10;;;;;;;10.47;9.10;;;16.10;99.90;;;;;;4996038;28;20435;-45
2022/10/30 06:52:39;;;;;;;11.63;8.67;;;16.10;99.90;;;;;;4983289;28;20505;-53
2022/10/30 06:55:07;;;;;;;10.27;7.43;;;16.10;99.90;;;;;;4993460;28;20457;-44
2022/10/30 06:57:34;;;;;;;16.20;8.27;;;16.20;99.90;;;;;;4994130;28;20458;-47
2022/10/30 07:00:01;;;;;;;14.10;7.90;;;16.30;99.90;;;;;;4993326;28;20467;-46
2022/10/30 07:02:28;;;;;;;13.90;9.67;;;16.30;99.90;;;;;;4995926;28;20451;-51
2022/10/30 07:04:54;;;;;;;14.80;8.53;;;16.30;99.90;;;;;;4996147;28;20451;-52
2022/10/30 07:07:21;;;;;;;12.77;8.10;;;16.30;99.90;;;;;;4996481;28;20523;-49
2022/10/30 07:09:49;;;;;;;14.87;9.63;;;16.30;99.90;;;;;;4996670;28;20443;-52
2022/10/30 07:12:16;;;;;;;12.70;8.70;;;16.40;99.90;;;;;;4995828;28;20486;-50
2022/10/30 07:14:43;;;;;;;14.90;8.90;;;16.40;99.90;;;;;;4996394;28;20462;-55
2022/10/30 07:17:09;;;;;;;22.10;8.90;;;16.50;99.90;;;;;;4996417;28;20481;-58
2022/10/30 07:19:36;;;;;;;17.23;9.70;;;16.40;99.90;;;;;;4995908;28;20451;-50
2022/10/30 07:22:03;;;;;;;14.63;8.87;;;16.40;99.90;;;;;;4995752;28;20426;-52
2022/10/30 07:24:30;;;;;;;17.00;9.63;;;16.40;99.90;;;;;;4995711;28;20457;-53
2022/10/30 07:26:59;;;;;;;18.30;9.67;;;16.30;99.90;;;;;;4986209;28;20443;-53
2022/10/30 07:29:26;;;;;;;12.37;8.70;;;16.20;99.90;;;;;;4990783;28;20555;-50
2022/10/30 07:31:53;;;;;;;16.37;10.00;;;16.30;99.90;;;;;;4995772;28;20449;-49
2022/10/30 07:34:19;;;;;;;15.10;9.50;;;16.30;99.90;;;;;;4995637;28;20431;-49
2022/10/30 07:36:46;;;;;;;15.17;8.23;;;16.30;99.90;;;;;;4996286;28;20445;-43
2022/10/30 07:39:19;;;;;;;16.87;9.17;;;16.30;99.90;;;;;;4995434;28;20449;-47
2022/10/30 07:41:48;;;;;;;17.20;9.43;;;16.40;99.90;;;;;;4996389;28;20453;-46
2022/10/30 07:44:16;;;;;;;9.00;7.87;;;16.40;99.90;;;;;;4996192;28;20447;-44
2022/10/30 07:46:45;;;;;;;11.23;7.97;;;16.40;99.90;;;;;;4995470;28;20449;-54
2022/10/30 07:49:12;;;;;;;16.93;9.87;;;16.40;99.90;;;;;;4980747;28;20449;-47
2022/10/30 07:51:42;;;;;;;14.90;9.33;;;16.50;99.90;;;;;;4995048;28;20449;-55
2022/10/30 07:54:09;;;;;;;11.17;7.47;;;16.60;99.90;;;;;;4995287;28;20481;-54
2022/10/30 07:56:35;;;;;;;11.97;8.30;;;16.70;99.90;;;;;;4995109;28;20449;-49
2022/10/30 07:59:02;;;;;;;11.33;8.07;;;16.80;99.90;;;;;;4994620;28;20443;-44
2022/10/30 08:01:31;;;;;;;19.60;8.50;;;16.90;99.90;;;;;;4990044;28;20454;-50
2022/10/30 08:03:58;;;;;;;10.27;7.67;;;16.90;99.90;;;;;;4987062;28;20541;-57
2022/10/30 08:06:24;;;;;;;12.23;7.30;;;17.00;99.90;;;;;;4994766;28;20455;-45
2022/10/30 08:08:51;;;;;;;9.27;7.50;;;17.00;99.90;;;;;;4996394;28;20450;-48
2022/10/30 08:11:18;;;;;;;11.87;7.20;;;17.10;99.90;;;;;;4997790;28;20550;-48
2022/10/30 08:13:45;;;;;;;14.20;9.37;;;17.20;99.90;;;;;;4997556;28;20460;-45
2022/10/30 08:16:12;;;;;;;9.00;7.70;;;17.30;99.90;;;;;;4993237;28;20450;-45
2022/10/30 08:18:41;;;;;;;9.43;7.40;;;17.30;99.90;;;;;;4987299;28;20489;-42
2022/10/30 08:21:08;;;;;;;9.70;7.33;;;17.40;99.90;;;;;;4998218;28;20442;-48
2022/10/30 08:23:35;;;;;;;12.40;8.80;;;17.40;99.90;;;;;;4985618;28;20435;-47
2022/10/30 08:26:01;;;;;;;11.63;8.10;;;17.40;99.90;;;;;;4995752;28;20449;-49
2022/10/30 08:28:28;;;;;;;10.77;8.80;;;17.50;99.90;;;;;;4997856;28;20449;-45
2022/10/30 08:30:55;;;;;;;9.20;7.57;;;17.60;99.90;;;;;;4998206;28;20489;-51
2022/10/30 08:33:22;;;;;;;14.00;7.77;;;17.70;99.90;;;;;;4997857;28;20558;-48
2022/10/30 08:35:52;;;;;;;10.43;7.47;;;17.80;99.90;;;;;;4987352;28;20577;-51
2022/10/30 08:38:19;;;;;;;10.13;8.27;;;17.80;99.90;;;;;;4995377;28;20449;-46
2022/10/30 08:40:46;;;;;;;10.13;7.13;;;17.80;99.90;;;;;;4985340;28;20769;-46
2022/10/30 08:43:13;;;;;;;12.37;7.80;;;18.00;99.90;;;;;;4994684;28;20458;-47
2022/10/30 08:45:40;;;;;;;7.97;7.17;;;18.10;99.90;;;;;;4997446;28;20451;-56
2022/10/30 08:48:11;;;;;;;7.80;6.60;;;18.20;99.90;;;;;;4997734;28;20485;-45
2022/10/30 08:50:38;;;;;;;10.40;6.17;;;18.30;99.90;;;;;;4997228;28;20437;-49
2022/10/30 08:53:10;;;;;;;10.87;6.90;;;18.40;99.90;;;;;;4996875;28;20483;-47
2022/10/30 08:55:37;;;;;;;8.60;7.60;;;18.60;99.90;;;;;;4982000;28;20566;-42
2022/10/30 08:58:04;;;;;;;9.17;6.60;;;18.70;99.90;;;;;;4997449;28;20466;-48
2022/10/30 09:00:31;;;;;;;8.10;7.20;;;18.80;99.90;;;;;;4997493;28;20475;-48
2022/10/30 09:02:58;;;;;;;9.40;6.80;;;19.00;99.90;;;;;;4997474;28;20451;-45
2022/10/30 09:05:24;;;;;;;14.10;6.60;;;19.00;99.90;;;;;;4997031;28;20515;-49
2022/10/30 09:07:59;;;;;;;10.27;6.43;;;19.00;99.90;;;;;;4997155;28;20427;-48
2022/10/30 09:10:27;;;;;;;11.73;7.13;;;19.10;99.90;;;;;;4997019;28;20446;-46
2022/10/30 09:12:55;;;;;;;11.00;5.73;;;19.20;99.90;;;;;;4986927;28;20497;-48
2022/10/30 09:15:22;;;;;;;7.77;6.80;;;19.30;99.90;;;;;;4997102;28;20447;-39
2022/10/30 09:17:55;;;;;;;11.33;7.30;;;19.40;99.90;;;;;;4996977;28;20459;-41
2022/10/30 09:20:22;;;;;;;8.53;6.13;;;19.50;99.90;;;;;;4996197;28;20437;-51
2022/10/30 09:22:49;;;;;;;8.87;6.13;;;19.60;99.90;;;;;;4997001;28;20467;-44
2022/10/30 09:25:15;;;;;;;14.07;6.13;;;19.70;99.90;;;;;;4997117;28;20477;-47
2022/10/30 09:27:44;;;;;;;9.90;6.50;;;20.40;99.90;;;;;;4996886;28;20454;-46
2022/10/30 09:30:11;;;;;;;9.43;5.33;;;21.40;99.90;;;;;;4996456;28;20523;-48
2022/10/30 09:32:38;;;;;;;10.40;6.23;;;22.60;99.90;;;;;;4997004;28;20495;-42
2022/10/30 09:35:06;;;;;;;8.30;5.70;;;23.80;99.90;;;;;;4996556;28;20439;-42
2022/10/30 09:37:34;;;;;;;11.47;6.03;;;24.80;99.90;;;;;;4996774;28;20474;-43
2022/10/30 09:40:03;;;;;;;18.30;6.47;;;25.70;99.90;;;;;;4996841;28;20457;-41
2022/10/30 09:42:42;;;;;;;9.40;5.53;;;26.50;99.90;;;;;;4996148;28;20462;-43
2022/10/30 09:45:33;;;;;;;10.83;5.73;;;27.10;99.90;;;;;;4996446;28;20474;-40
2022/10/30 09:48:15;;;;;;;8.67;5.63;;;27.70;99.90;;;;;;4979800;28;20456;-47
2022/10/30 09:50:53;;;;;;;11.13;5.50;;;28.10;97.50;;;;;;4995848;28;20422;-40
2022/10/30 09:53:29;;;;;;;6.80;5.40;;;28.30;94.50;;;;;;4996221;28;20482;-45
2022/10/30 09:56:06;;;;;;;8.30;5.90;;;28.30;94.50;;;;;;4996528;28;20488;-46
2022/10/30 09:58:41;;;;;;;8.87;5.77;;;28.40;93.00;;;;;;4996601;28;20435;-47
2022/10/30 10:01:16;;;;;;;16.50;10.93;;;28.50;92.30;;;;;;4996261;28;20466;-42
2022/10/30 10:03:58;;;;;;;8.63;5.90;;;28.50;91.30;;;;;;4995827;28;20490;-45
2022/10/30 10:06:26;;;;;;;5.70;5.00;;;28.60;90.80;;;;;;4996449;28;20414;-42
2022/10/30 10:08:57;;;;;;;7.43;5.20;;;28.60;90.30;;;;;;4996560;28;20451;-46
2022/10/30 10:11:31;;;;;;;8.73;5.90;;;28.50;90.60;;;;;;4996371;28;20435;-49
2022/10/30 10:14:01;;;;;;;7.30;5.60;;;28.50;90.60;;;;;;4996353;28;20518;-43
2022/10/30 10:16:36;;;;;;;7.60;5.20;;;28.50;89.80;;;;;;4995841;28;20515;-44
2022/10/30 10:19:10;;;;;;;5.83;5.03;;;28.50;88.30;;;;;;4996438;28;20430;-41
2022/10/30 10:21:44;;;;;;;8.17;5.07;;;28.50;88.90;;;;;;4988023;28;20438;-49
2022/10/30 10:24:16;;;;;;;9.07;5.00;;;28.50;87.70;;;;;;4988224;28;20439;-46
2022/10/30 10:26:48;;;;;;;6.57;5.03;;;28.40;88.30;;;;;;4996299;28;20470;-44
2022/10/30 10:29:40;;;;;;;5.97;4.17;;;28.40;88.20;;;;;;4995881;28;20446;-43
2022/10/30 10:32:46;;;;;;;5.77;4.43;;;28.30;87.50;;;;;;4995396;28;20497;-45
2022/10/30 10:35:34;;;;;;;9.13;5.23;;;28.20;87.00;;;;;;4980209;28;20434;-47
2022/10/30 10:38:10;;;;;;;8.10;4.57;;;28.20;87.50;;;;;;4995501;28;20501;-46
2022/10/30 10:40:52;;;;;;;6.70;4.80;;;28.10;87.20;;;;;;4995221;28;20426;-45
2022/10/30 10:43:30;;;;;;;6.43;5.10;;;28.10;88.30;;;;;;4995131;28;20502;-47
2022/10/30 10:46:16;;;;;;;7.87;4.63;;;28.00;86.50;;;;;;4995793;28;20437;-50
2022/10/30 10:49:10;;;;;;;10.77;5.00;;;27.80;86.50;;;;;;4995545;28;21004;-46
2022/10/30 10:51:40;;;;;;;7.03;5.67;;;27.40;88.20;;;;;;4995279;28;20465;-47
2022/10/30 10:54:13;;;;;;;8.27;5.20;;;27.30;90.00;;;;;;4995161;28;20474;-44
2022/10/30 10:56:43;;;;;;;6.10;4.47;;;27.30;89.70;;;;;;4987897;28;20474;-47
2022/10/30 10:59:15;;;;;;;7.83;4.90;;;27.00;90.00;;;;;;4988087;28;20451;-48
2022/10/30 11:01:49;;;;;;;10.30;4.33;;;26.90;91.10;;;;;;4995229;28;20502;-53
2022/10/30 11:04:30;;;;;;;6.80;5.10;;;26.60;90.60;;;;;;4995553;28;20894;-46
2022/10/30 11:06:59;;;;;;;9.27;5.17;;;26.20;91.50;;;;;;4995525;28;20495;-48
2022/10/30 11:09:27;;;;;;;9.67;4.93;;;25.70;91.90;;;;;;4994944;28;20495;-43
2022/10/30 11:11:55;;;;;;;9.13;4.50;;;25.30;93.10;;;;;;4995209;28;20445;-42
2022/10/30 11:14:24;;;;;;;8.07;4.37;;;24.90;93.30;;;;;;4995578;28;20694;-49
2022/10/30 11:17:03;;;;;;;7.63;4.30;;;24.50;94.20;;;;;;4995375;28;20515;-49
2022/10/30 11:19:33;;;;;;;9.80;5.07;;;24.20;95.80;;;;;;4995301;28;20450;-45
2022/10/30 11:22:01;;;;;;;11.23;5.87;;;23.90;97.20;;;;;;4995450;28;20443;-45
2022/10/30 11:24:33;;;;;;;7.60;4.50;;;23.70;99.30;;;;;;4994787;28;20443;-52
2022/10/30 11:27:17;;;;;;;19.67;4.73;;;23.50;99.90;;;;;;4994890;28;20471;-48
2022/10/30 11:29:51;;;;;;;10.80;4.43;;;23.20;99.90;;;;;;4994978;28;20423;-45
2022/10/30 11:32:21;;;;;;;9.53;5.37;;;23.00;99.90;;;;;;4995337;28;20473;-45
2022/10/30 11:35:11;;;;;;;10.50;4.87;;;23.00;99.90;;;;;;4994865;28;20474;-44
2022/10/30 11:37:39;;;;;;;10.13;5.10;;;22.90;99.90;;;;;;4995169;28;20443;-47
2022/10/30 11:40:16;;;;;;;9.00;5.30;;;22.80;99.90;;;;;;4995461;28;20447;-50
2022/10/30 11:42:45;;;;;;;7.10;3.67;;;22.80;99.90;;;;;;4996494;28;20419;-47
2022/10/30 11:45:16;;;;;;;8.23;4.50;;;22.80;99.90;;;;;;4990288;28;20462;-45
2022/10/30 11:47:44;;;;;;;7.63;4.33;;;22.80;99.90;;;;;;4992475;28;20431;-47
2022/10/30 11:50:19;;;;;;;17.73;4.10;;;22.70;99.90;;;;;;4983050;28;20447;-44
2022/10/30 11:52:49;;;;;;;13.30;4.70;;;22.70;99.90;;;;;;4999509;28;20434;-42
2022/10/30 11:55:19;;;;;;;7.70;4.90;;;22.60;99.90;;;;;;4999702;28;20482;-47
2022/10/30 11:57:49;;;;;;;13.83;5.67;;;22.60;99.90;;;;;;4999540;28;20465;-53
2022/10/30 12:00:18;;;;;;;6.90;3.97;;;22.50;99.90;;;;;;4999520;28;20427;-51
2022/10/30 12:02:47;;;;;;;7.37;4.00;;;22.60;99.90;;;;;;4988308;28;20471;-45
2022/10/30 12:05:34;;;;;;;7.27;5.00;;;22.60;99.90;;;;;;4996199;28;20457;-50
2022/10/30 12:08:19;;;;;;;14.67;4.80;;;22.70;99.90;;;;;;4999200;28;20442;-42
2022/10/30 12:10:54;;;;;;;8.40;5.17;;;22.60;99.90;;;;;;4998639;28;20443;-45
2022/10/30 12:13:23;;;;;;;12.00;5.27;;;22.60;99.90;;;;;;4998504;28;20446;-44
2022/10/30 12:16:04;;;;;;;7.97;4.20;;;22.70;99.90;;;;;;4998972;28;20494;-44
2022/10/30 12:18:33;;;;;;;6.40;4.77;;;22.70;99.90;;;;;;4998539;28;20481;-39
2022/10/30 12:21:02;;;;;;;10.87;6.67;;;22.70;99.90;;;;;;4998561;28;20538;-49
2022/10/30 12:23:30;;;;;;;13.53;5.03;;;22.70;99.90;;;;;;4998825;28;20445;-40
2022/10/30 12:26:00;;;;;;;10.00;4.00;;;22.70;99.90;;;;;;4999123;28;20435;-47
2022/10/30 12:28:29;;;;;;;8.27;3.83;;;22.70;99.90;;;;;;4998862;28;20498;-45
2022/10/30 12:31:00;;;;;;;7.53;4.17;;;22.70;99.90;;;;;;4998377;28;20463;-48
2022/10/30 12:33:32;;;;;;;8.10;4.17;;;22.70;99.90;;;;;;4998922;28;20473;-49
2022/10/30 12:36:03;;;;;;;8.57;4.27;;;22.70;99.90;;;;;;4998971;28;20407;-49
2022/10/30 12:38:36;;;;;;;10.93;4.63;;;22.60;99.90;;;;;;4998643;28;20514;-53
2022/10/30 12:41:14;;;;;;;7.77;4.00;;;22.70;99.90;;;;;;4998572;28;20438;-48
2022/10/30 12:43:45;;;;;;;11.70;4.23;;;22.70;99.90;;;;;;4998373;28;21027;-39
2022/10/30 12:46:24;;;;;;;7.17;3.60;;;22.70;99.90;;;;;;4998282;28;20478;-48
2022/10/30 12:48:55;;;;;;;5.90;3.80;;;22.70;99.90;;;;;;4998496;28;20458;-46
2022/10/30 12:51:32;;;;;;;9.30;4.57;;;22.60;99.90;;;;;;4998123;28;20497;-49